createdAt,value
2019-01-24T00:00:08.131Z,52.50
2019-01-24T00:02:36.827Z,50.00
2019-01-24T00:05:05.629Z,60.17
2019-01-24T00:07:34.281Z,54.08
2019-01-24T00:10:02.965Z,53.65
2019-01-24T00:12:31.682Z,56.58
2019-01-24T00:15:00.361Z,56.92
2019-01-24T00:17:29.142Z,53.50
2019-01-24T00:19:57.797Z,57.40
2019-01-24T00:22:26.494Z,55.28
2019-01-24T00:24:55.119Z,55.00
2019-01-24T00:27:24.326Z,60.05
2019-01-24T00:29:52.964Z,57.85
2019-01-24T00:32:21.641Z,53.68
2019-01-24T00:34:50.311Z,52.38
2019-01-24T00:37:18.985Z,56.65
2019-01-24T00:39:47.682Z,55.83
2019-01-24T00:42:16.341Z,59.98
2019-01-24T00:44:45.033Z,56.60
2019-01-24T00:47:13.783Z,58.63
2019-01-24T00:49:42.501Z,53.83
2019-01-24T00:52:11.169Z,56.42
2019-01-24T00:54:39.823Z,60.35
2019-01-24T00:57:08.509Z,53.68
2019-01-24T00:59:37.176Z,56.55
2019-01-24T01:02:05.885Z,55.43
2019-01-24T01:04:34.493Z,53.28
2019-01-24T01:07:03.210Z,59.03
2019-01-24T01:09:31.921Z,61.28
2019-01-24T01:12:00.564Z,55.03
2019-01-24T01:14:29.151Z,58.73
2019-01-24T01:16:57.928Z,52.00
2019-01-24T01:19:26.563Z,56.23
2019-01-24T01:21:55.255Z,55.12
2019-01-24T01:24:23.953Z,51.13
2019-01-24T01:26:52.545Z,60.10
2019-01-24T01:29:21.205Z,54.05
2019-01-24T01:31:49.866Z,57.27
2019-01-24T01:34:18.548Z,55.73
2019-01-24T01:36:47.197Z,55.43
2019-01-24T01:39:15.969Z,55.08
2019-01-24T01:41:44.539Z,50.60
2019-01-24T01:44:13.206Z,59.23
2019-01-24T01:46:41.876Z,61.45
2019-01-24T01:49:10.580Z,55.30
2019-01-24T01:51:39.224Z,57.78
2019-01-24T01:54:07.921Z,58.33
2019-01-24T01:56:36.593Z,62.38
2019-01-24T01:59:05.275Z,58.13
2019-01-24T02:01:33.936Z,64.15
2019-01-24T02:04:02.634Z,56.60
2019-01-24T02:06:31.285Z,58.70
2019-01-24T02:08:59.971Z,52.83
2019-01-24T02:11:28.711Z,63.65
2019-01-24T02:13:57.369Z,57.45
2019-01-24T02:16:26.056Z,57.70
2019-01-24T02:18:54.721Z,65.75
2019-01-24T02:21:23.609Z,58.50
2019-01-24T02:23:52.354Z,60.40
2019-01-24T02:26:20.975Z,60.67
2019-01-24T02:28:49.643Z,64.92
2019-01-24T02:31:18.346Z,58.02
2019-01-24T02:33:47.027Z,56.63
2019-01-24T02:36:15.610Z,61.10
2019-01-24T02:38:44.293Z,66.20
2019-01-24T02:41:12.948Z,61.10
2019-01-24T02:43:41.668Z,66.10
2019-01-24T02:46:10.337Z,57.50
2019-01-24T02:48:39.045Z,61.88
2019-01-24T02:51:07.632Z,59.05
2019-01-24T02:53:36.361Z,61.58
2019-01-24T02:56:05.050Z,62.40
2019-01-24T02:58:33.762Z,60.60
2019-01-24T03:01:02.401Z,60.73
2019-01-24T03:03:31.063Z,60.17
2019-01-24T03:05:59.744Z,64.47
2019-01-24T03:08:28.393Z,57.03
2019-01-24T03:10:57.072Z,68.92
2019-01-24T03:13:25.807Z,67.42
2019-01-24T03:15:54.577Z,65.62
2019-01-24T03:18:23.258Z,70.28
2019-01-24T03:20:51.828Z,64.37
2019-01-24T03:23:20.487Z,72.37
2019-01-24T03:25:49.172Z,74.42
2019-01-24T03:28:17.876Z,60.92
2019-01-24T03:30:46.530Z,65.90
2019-01-24T03:33:15.208Z,73.95
2019-01-24T03:35:43.875Z,68.25
2019-01-24T03:38:12.569Z,71.85
2019-01-24T03:40:41.237Z,72.25
2019-01-24T03:43:09.970Z,71.77
2019-01-24T03:45:38.651Z,71.40
2019-01-24T03:48:07.330Z,68.28
2019-01-24T03:50:36.013Z,74.85
2019-01-24T03:53:04.594Z,71.95
2019-01-24T03:55:33.280Z,74.32
2019-01-24T03:58:01.908Z,69.92
2019-01-24T04:00:30.563Z,72.05
2019-01-24T04:02:59.216Z,69.07
2019-01-24T04:05:27.860Z,64.62
2019-01-24T04:07:56.421Z,67.78
2019-01-24T04:10:25.106Z,72.97
2019-01-24T04:12:53.797Z,62.73
2019-01-24T04:15:23.177Z,75.52
2019-01-24T04:17:52.211Z,64.05
2019-01-24T04:20:20.850Z,73.47
2019-01-24T04:22:49.485Z,75.92
2019-01-24T04:25:19.466Z,72.25
2019-01-24T04:27:48.141Z,68.02
2019-01-24T04:30:17.728Z,76.07
2019-01-24T04:32:46.413Z,72.65
2019-01-24T04:35:20.079Z,71.30
2019-01-24T04:37:46.012Z,73.22
2019-01-24T04:40:15.244Z,64.77
2019-01-24T04:42:43.992Z,70.92
2019-01-24T04:45:13.162Z,76.10
2019-01-24T04:47:41.833Z,68.90
2019-01-24T04:50:11.332Z,73.00
2019-01-24T04:52:40.024Z,66.87
2019-01-24T04:55:09.276Z,65.95
2019-01-24T04:57:37.926Z,68.33
2019-01-24T05:00:09.565Z,69.65
2019-01-24T05:02:38.233Z,64.03
2019-01-24T05:05:07.062Z,70.45
2019-01-24T05:07:35.710Z,66.57
2019-01-24T05:10:05.972Z,70.60
2019-01-24T05:12:34.714Z,73.28
2019-01-24T05:15:03.360Z,67.87
2019-01-24T05:17:32.086Z,71.90
2019-01-24T05:20:00.738Z,67.45
2019-01-24T05:22:29.460Z,66.67
2019-01-24T05:24:58.048Z,66.72
2019-01-24T05:27:26.834Z,71.77
2019-01-24T05:29:55.448Z,72.27
2019-01-24T05:32:24.114Z,74.82
2019-01-24T05:34:52.835Z,67.58
2019-01-24T05:37:21.480Z,67.55
2019-01-24T05:39:50.195Z,77.60
2019-01-24T05:42:18.838Z,71.42
2019-01-24T05:44:47.487Z,63.83
2019-01-24T05:47:16.167Z,72.12
2019-01-24T05:49:44.876Z,79.62
2019-01-24T05:52:19.473Z,69.12
2019-01-24T05:54:43.916Z,64.92
2019-01-24T05:57:12.595Z,68.87
2019-01-24T05:59:41.260Z,75.00
2019-01-24T06:02:09.960Z,70.83
2019-01-24T06:04:38.602Z,65.47
2019-01-24T06:07:07.400Z,67.37
2019-01-24T06:09:36.093Z,70.72
2019-01-24T06:12:04.725Z,69.20
2019-01-24T06:14:33.483Z,73.97
2019-01-24T06:17:02.171Z,72.42
2019-01-24T06:19:31.805Z,69.45
2019-01-24T06:22:00.475Z,69.45
2019-01-24T06:24:29.226Z,74.42
2019-01-24T06:34:10.795Z,66.70
2019-01-24T06:36:39.420Z,72.50
2019-01-24T06:39:08.629Z,68.80
2019-01-24T06:41:37.343Z,76.95
2019-01-24T06:44:05.997Z,75.42
2019-01-24T06:46:34.640Z,76.45
2019-01-24T06:49:03.983Z,73.00
2019-01-24T06:51:32.623Z,66.80
2019-01-24T06:54:03.625Z,76.77
2019-01-24T06:56:32.340Z,73.37
2019-01-24T06:59:01.086Z,72.17
2019-01-24T07:01:29.756Z,65.85
2019-01-24T07:03:58.459Z,66.33
2019-01-24T07:11:43.855Z,65.35
2019-01-24T07:14:12.668Z,73.42
2019-01-24T07:16:41.501Z,76.20
2019-01-24T07:19:10.316Z,69.10
2019-01-24T07:21:39.171Z,73.60
2019-01-24T07:24:07.871Z,69.58
2019-01-24T07:26:37.572Z,70.78
2019-01-24T07:29:06.391Z,73.60
2019-01-24T07:31:38.531Z,77.00
2019-01-24T07:34:07.322Z,66.62
2019-01-24T07:36:36.140Z,75.70
2019-01-24T07:39:06.754Z,77.45
2019-01-24T07:41:35.548Z,75.97
2019-01-24T07:44:09.325Z,75.65
2019-01-24T07:46:38.132Z,70.75
2019-01-24T07:49:06.934Z,69.75
2019-01-24T07:51:35.806Z,75.10
2019-01-24T07:54:04.695Z,72.15
2019-01-24T07:56:33.538Z,68.90
2019-01-24T07:59:02.531Z,69.00
2019-01-24T08:01:31.384Z,67.80
2019-01-24T08:04:00.200Z,69.30
2019-01-24T08:06:29.026Z,73.17
2019-01-24T08:08:57.754Z,70.45
2019-01-24T08:11:26.753Z,73.78
2019-01-24T08:13:55.543Z,64.97
2019-01-24T08:33:34.702Z,61.83
2019-01-24T08:36:03.501Z,62.00
2019-01-24T08:38:32.267Z,67.45
2019-01-24T08:41:00.963Z,69.70
2019-01-24T08:43:29.740Z,66.02
2019-01-24T08:45:58.489Z,71.67
2019-01-24T08:48:27.247Z,58.92
2019-01-24T08:50:55.965Z,63.13
2019-01-24T08:53:24.697Z,64.25
2019-01-24T08:55:53.461Z,68.07
2019-01-24T08:58:22.233Z,62.55
2019-01-24T09:00:51.021Z,67.35
2019-01-24T09:03:19.694Z,67.20
2019-01-24T09:05:48.504Z,68.42
2019-01-24T09:08:17.147Z,63.20
2019-01-24T09:10:46.094Z,62.93
2019-01-24T09:13:15.029Z,63.33
2019-01-24T09:15:44.419Z,65.22
2019-01-24T09:18:13.795Z,68.52
2019-01-24T09:20:43.142Z,69.40
2019-01-24T09:23:12.373Z,68.28
2019-01-24T09:25:41.047Z,63.13
2019-01-24T09:28:14.796Z,67.72
2019-01-24T09:30:40.151Z,74.65
2019-01-24T09:33:08.896Z,73.17
2019-01-24T09:35:37.557Z,71.77
2019-01-24T09:38:06.282Z,65.53
2019-01-24T09:40:34.955Z,70.40
2019-01-24T09:43:03.748Z,62.77
2019-01-24T09:45:32.604Z,68.73
2019-01-24T09:48:01.642Z,66.17
2019-01-24T09:50:30.683Z,58.10
2019-01-24T09:52:59.525Z,64.10
2019-01-24T09:55:28.252Z,63.43
2019-01-24T09:57:56.923Z,67.67
2019-01-24T10:00:26.709Z,67.83
2019-01-24T10:02:55.426Z,66.90
2019-01-24T10:05:24.104Z,72.03
2019-01-24T10:07:52.843Z,63.77
2019-01-24T10:10:22.021Z,66.17
2019-01-24T10:12:50.828Z,65.40
2019-01-24T10:15:19.705Z,64.73
2019-01-24T10:17:48.434Z,67.13
2019-01-24T10:20:17.983Z,66.93
2019-01-24T10:22:46.865Z,60.13
2019-01-24T10:25:20.064Z,67.50
2019-01-24T10:27:48.749Z,68.03
2019-01-24T10:30:18.042Z,60.30
2019-01-24T10:32:46.770Z,63.40
2019-01-24T10:35:15.536Z,66.43
2019-01-24T10:37:44.267Z,60.37
2019-01-24T10:40:14.675Z,63.67
2019-01-24T10:42:43.373Z,66.43
2019-01-24T10:45:12.828Z,59.77
2019-01-24T10:47:41.528Z,58.73
2019-01-24T10:50:10.819Z,56.67
2019-01-24T10:52:39.623Z,56.07
2019-01-24T10:55:13.602Z,57.97
2019-01-24T10:57:39.658Z,61.13
2019-01-24T11:00:10.505Z,61.67
2019-01-24T11:02:39.258Z,60.33
2019-01-24T11:05:08.740Z,53.13
2019-01-24T11:07:37.525Z,57.43
2019-01-24T11:10:06.309Z,58.60
2019-01-24T11:12:34.957Z,55.07
2019-01-24T11:15:04.514Z,54.67
2019-01-24T11:17:33.173Z,56.17
2019-01-24T11:20:01.835Z,51.57
2019-01-24T11:22:30.520Z,51.40
2019-01-24T11:24:59.222Z,50.57
2019-01-24T11:27:28.039Z,46.33
2019-01-24T11:29:56.674Z,55.53
2019-01-24T11:32:26.841Z,68.63
2019-01-24T11:34:55.602Z,67.33
2019-01-24T11:37:24.460Z,65.33
2019-01-24T11:39:53.163Z,76.90
2019-01-24T11:42:21.805Z,73.63
2019-01-24T11:44:50.484Z,72.93
2019-01-24T11:47:19.225Z,75.63
2019-01-24T11:49:47.949Z,77.07
2019-01-24T11:52:16.604Z,74.67
2019-01-24T11:54:45.363Z,71.83
2019-01-24T11:57:14.155Z,82.23
2019-01-24T11:59:42.980Z,72.80
2019-01-24T12:02:11.717Z,78.30
2019-01-24T12:04:41.027Z,78.30
2019-01-24T12:07:09.791Z,77.90
2019-01-24T12:09:38.516Z,77.00
2019-01-24T12:12:07.250Z,77.40
2019-01-24T12:14:35.962Z,76.37
2019-01-24T12:17:04.732Z,67.83
2019-01-24T12:19:33.525Z,74.87
2019-01-24T12:22:02.212Z,69.77
2019-01-24T12:24:31.043Z,77.03
2019-01-24T12:26:59.791Z,70.30
2019-01-24T12:29:28.490Z,76.00
2019-01-24T12:31:57.173Z,69.77
2019-01-24T12:34:25.925Z,73.20
2019-01-24T12:36:54.642Z,69.47
2019-01-24T12:39:23.403Z,72.00
2019-01-24T12:41:52.056Z,70.37
2019-01-24T12:44:21.326Z,73.22
2019-01-24T12:46:50.081Z,71.97
2019-01-24T12:49:18.759Z,82.82
2019-01-24T12:51:47.429Z,73.60
2019-01-24T12:54:16.075Z,81.22
2019-01-24T12:56:44.761Z,73.80
2019-01-24T12:59:13.442Z,76.97
2019-01-24T13:01:42.186Z,72.45
2019-01-24T13:04:10.897Z,74.42
2019-01-24T13:06:39.565Z,74.42
2019-01-24T13:09:08.346Z,74.12
2019-01-24T13:11:37.103Z,75.57
2019-01-24T13:14:05.883Z,69.15
2019-01-24T13:16:34.640Z,72.30
2019-01-24T13:19:03.396Z,75.70
2019-01-24T13:21:32.153Z,68.45
2019-01-24T13:24:00.881Z,69.87
2019-01-24T13:26:30.939Z,69.75
2019-01-24T13:28:59.677Z,67.83
2019-01-24T13:31:28.430Z,64.25
2019-01-24T13:33:57.185Z,66.70
2019-01-24T13:36:25.918Z,66.53
2019-01-24T13:38:54.630Z,64.40
2019-01-24T13:41:23.321Z,62.53
2019-01-24T13:43:52.030Z,60.17
2019-01-24T13:46:20.806Z,62.90
2019-01-24T13:48:49.510Z,60.30
2019-01-24T13:51:18.281Z,63.63
2019-01-24T13:53:47.078Z,62.07
2019-01-24T13:56:15.904Z,57.70
2019-01-24T13:58:44.773Z,66.80
2019-01-24T14:01:13.583Z,60.13
2019-01-24T14:03:53.515Z,58.93
2019-01-24T14:06:22.312Z,62.33
2019-01-24T14:08:51.174Z,59.37
2019-01-24T14:11:19.992Z,59.90
2019-01-24T14:13:48.793Z,57.77
2019-01-24T14:16:17.607Z,58.03
2019-01-24T14:18:46.430Z,68.47
2019-01-24T14:21:15.273Z,59.53
2019-01-24T14:23:44.060Z,58.07
2019-01-24T14:26:12.943Z,62.37
2019-01-24T14:28:41.908Z,60.43
2019-01-24T14:31:10.849Z,64.00
2019-01-24T14:33:40.108Z,58.08
2019-01-24T14:36:08.994Z,68.95
2019-01-24T14:38:37.679Z,68.22
2019-01-24T14:41:06.422Z,69.47
2019-01-24T14:43:35.340Z,65.65
2019-01-24T14:46:04.327Z,67.92
2019-01-24T14:48:33.183Z,63.68
2019-01-24T14:51:01.932Z,68.70
2019-01-24T14:53:30.946Z,69.07
2019-01-24T14:55:59.667Z,69.95
2019-01-24T14:58:28.482Z,73.07
2019-01-24T15:00:59.836Z,73.35
2019-01-24T15:03:28.551Z,71.47
2019-01-24T15:05:57.298Z,71.72
2019-01-24T15:08:26.097Z,64.65
2019-01-24T15:10:54.828Z,71.07
2019-01-24T15:13:23.625Z,70.22
2019-01-24T15:15:52.566Z,65.25
2019-01-24T15:18:21.450Z,70.57
2019-01-24T15:20:50.356Z,67.92
2019-01-24T15:23:19.299Z,63.48
2019-01-24T15:25:48.125Z,66.75
2019-01-24T15:28:17.296Z,67.80
2019-01-24T15:30:46.055Z,70.70
2019-01-24T15:33:14.999Z,73.20
2019-01-24T15:35:43.908Z,65.12
2019-01-24T15:38:12.747Z,60.00
2019-01-24T15:40:41.502Z,67.40
2019-01-24T15:43:10.311Z,70.67
2019-01-24T15:45:39.162Z,67.62
2019-01-24T15:48:08.143Z,67.53
2019-01-24T15:50:36.888Z,66.62
2019-01-24T15:53:05.965Z,68.42
2019-01-24T15:55:34.860Z,70.28
2019-01-24T15:58:03.716Z,70.30
2019-01-24T16:00:32.556Z,65.78
2019-01-24T16:03:01.318Z,63.28
2019-01-24T16:16:34.772Z,65.62
2019-01-24T16:22:34.304Z,69.85
2019-01-24T16:25:04.227Z,64.80
2019-01-24T16:27:34.479Z,67.03
2019-01-24T16:30:06.176Z,66.97
2019-01-24T16:32:47.047Z,63.48
2019-01-24T16:35:25.262Z,62.45
2019-01-24T16:37:54.127Z,67.53
2019-01-24T16:40:23.834Z,60.70
2019-01-24T16:43:14.625Z,65.32
2019-01-24T16:45:58.886Z,61.53
2019-01-24T16:48:27.867Z,68.85
2019-01-24T16:50:56.763Z,65.40
2019-01-24T16:53:25.617Z,71.07
2019-01-24T16:55:54.421Z,71.90
2019-01-24T16:58:23.284Z,68.92
2019-01-24T17:01:02.729Z,74.72
2019-01-24T17:03:31.704Z,71.65
2019-01-24T17:06:00.504Z,77.05
2019-01-24T17:08:29.359Z,77.32
2019-01-24T17:10:58.154Z,72.78
2019-01-24T17:13:26.984Z,85.87
2019-01-24T17:15:56.046Z,73.85
2019-01-24T17:18:26.064Z,80.42
2019-01-24T17:20:54.844Z,76.42
2019-01-24T17:23:23.763Z,75.40
2019-01-24T17:25:52.732Z,67.03
2019-01-24T17:28:21.753Z,68.87
2019-01-24T17:30:50.718Z,82.37
2019-01-24T17:33:20.580Z,80.65
2019-01-24T17:35:49.563Z,75.00
2019-01-24T17:38:23.612Z,75.35
2019-01-24T17:40:49.987Z,78.52
2019-01-24T17:43:18.857Z,77.42
2019-01-24T17:45:47.875Z,90.97
2019-01-24T17:48:16.929Z,82.17
2019-01-24T17:50:45.975Z,75.62
2019-01-24T17:53:15.171Z,76.15
2019-01-24T17:55:45.223Z,77.82
2019-01-24T17:58:14.401Z,83.20
2019-01-24T18:00:47.816Z,71.87
2019-01-24T18:03:16.861Z,74.80
2019-01-24T18:05:45.766Z,73.30
2019-01-24T18:08:14.610Z,80.45
2019-01-24T18:10:43.443Z,81.28
2019-01-24T18:13:12.303Z,79.25
2019-01-24T18:15:41.064Z,80.00
2019-01-24T18:18:11.188Z,80.87
2019-01-24T18:20:40.150Z,75.85
2019-01-24T18:23:09.330Z,76.67
2019-01-24T18:25:38.115Z,71.95
2019-01-24T18:28:07.771Z,75.95
2019-01-24T18:30:36.827Z,74.95
2019-01-24T18:33:06.077Z,74.70
2019-01-24T18:35:35.093Z,74.80
2019-01-24T18:38:03.946Z,79.70
2019-01-24T18:40:33.081Z,79.65
2019-01-24T18:43:01.967Z,75.45
2019-01-24T18:45:38.284Z,74.00
2019-01-24T18:48:07.255Z,77.53
2019-01-24T18:50:36.113Z,82.33
2019-01-24T18:53:05.327Z,83.07
2019-01-24T18:55:35.928Z,80.03
2019-01-24T18:58:05.169Z,77.85
2019-01-24T19:00:36.378Z,77.50
2019-01-24T19:03:05.980Z,81.87
2019-01-24T19:05:34.707Z,77.25
2019-01-24T19:08:03.492Z,79.80
2019-01-24T19:10:32.327Z,72.12
2019-01-24T19:13:01.048Z,80.50
2019-01-24T19:15:29.774Z,80.55
2019-01-24T19:17:58.484Z,73.37
2019-01-24T19:20:27.693Z,72.62
2019-01-24T19:22:56.700Z,80.22
2019-01-24T19:25:25.921Z,73.28
2019-01-24T19:27:55.860Z,79.37
2019-01-24T19:30:26.291Z,81.22
2019-01-24T19:32:55.524Z,75.57
2019-01-24T19:35:24.676Z,78.22
2019-01-24T19:37:53.833Z,86.90
2019-01-24T19:40:23.141Z,82.30
2019-01-24T19:42:52.113Z,77.75
2019-01-24T19:45:21.848Z,75.55
2019-01-24T19:47:51.012Z,80.38
2019-01-24T19:50:20.770Z,76.22
2019-01-24T19:52:49.768Z,83.20
2019-01-24T19:55:18.687Z,80.72
2019-01-24T19:57:47.701Z,81.87
2019-01-24T20:00:18.006Z,80.32
2019-01-24T20:02:47.217Z,83.52
2019-01-24T20:05:16.601Z,81.05
2019-01-24T20:07:45.583Z,71.40
2019-01-24T20:10:16.277Z,81.00
2019-01-24T20:12:45.381Z,77.95
2019-01-24T20:15:15.752Z,73.30
2019-01-24T20:17:44.826Z,79.10
2019-01-24T20:20:13.710Z,80.15
2019-01-24T20:22:42.492Z,75.05
2019-01-24T20:25:12.208Z,70.80
2019-01-24T20:27:40.961Z,77.03
2019-01-24T20:30:11.483Z,75.30
2019-01-24T20:32:40.220Z,68.87
2019-01-24T20:35:10.585Z,86.05
2019-01-24T20:37:39.360Z,76.97
2019-01-24T20:40:08.842Z,78.10
2019-01-24T20:42:37.540Z,79.40
2019-01-24T20:45:06.870Z,84.25
2019-01-24T20:47:35.851Z,78.90
2019-01-24T20:50:04.921Z,78.72
2019-01-24T20:52:33.696Z,80.22
2019-01-24T20:55:02.465Z,76.85
2019-01-24T20:57:31.379Z,71.40
2019-01-24T21:00:00.361Z,78.28
2019-01-24T21:02:29.080Z,76.92
2019-01-24T21:04:57.881Z,79.12
2019-01-24T21:07:26.626Z,77.80
2019-01-24T21:09:55.824Z,83.15
2019-01-24T21:12:24.618Z,78.90
2019-01-24T21:14:53.472Z,77.17
2019-01-24T21:17:22.401Z,75.57
2019-01-24T21:19:51.219Z,78.57
2019-01-24T21:22:20.160Z,83.27
2019-01-24T21:24:48.959Z,76.90
2019-01-24T21:27:17.942Z,75.28
2019-01-24T21:29:46.707Z,75.10
2019-01-24T21:32:15.522Z,75.00
2019-01-24T21:34:44.287Z,75.25
2019-01-24T21:37:13.038Z,77.25
2019-01-24T21:39:41.937Z,87.65
2019-01-24T21:42:10.623Z,73.90
2019-01-24T21:44:39.323Z,78.07
2019-01-24T21:47:08.055Z,77.35
2019-01-24T22:19:42.252Z,69.95
2019-01-24T22:22:11.002Z,72.53
2019-01-24T22:24:39.730Z,75.92
2019-01-24T22:27:08.432Z,76.15
2019-01-24T22:29:37.227Z,80.53
2019-01-24T22:32:06.078Z,86.55
2019-01-24T22:34:34.877Z,84.65
2019-01-24T22:37:03.625Z,80.20
2019-01-24T22:39:36.558Z,74.92
2019-01-24T22:42:02.893Z,80.05
2019-01-24T22:44:31.664Z,77.62
2019-01-24T22:47:00.369Z,81.53
2019-01-24T22:49:29.230Z,79.67
2019-01-24T22:51:58.060Z,78.60
2019-01-24T22:54:27.996Z,75.80
2019-01-24T22:56:56.818Z,83.82
2019-01-24T22:59:25.528Z,85.22
2019-01-24T23:02:06.308Z,81.70
2019-01-24T23:04:34.991Z,85.00
2019-01-24T23:07:03.865Z,85.30
2019-01-24T23:09:32.612Z,87.40
2019-01-24T23:12:01.385Z,84.17
2019-01-24T23:14:30.091Z,83.58
2019-01-24T23:16:58.778Z,84.13
2019-01-24T23:19:27.469Z,80.57
2019-01-24T23:22:04.711Z,74.65
2019-01-24T23:24:33.487Z,77.72
2019-01-24T23:27:02.209Z,83.10
2019-01-24T23:29:32.956Z,82.53
2019-01-24T23:32:01.732Z,84.83
2019-01-24T23:34:33.484Z,81.78
2019-01-24T23:37:27.250Z,81.75
2019-01-24T23:40:06.601Z,75.78
2019-01-24T23:42:43.824Z,80.47
2019-01-24T23:45:14.981Z,76.82
2019-01-24T23:47:47.365Z,77.87
2019-01-24T23:50:28.653Z,77.10
2019-01-24T23:53:02.933Z,78.80
2019-01-24T23:55:36.722Z,75.17
2019-01-24T23:58:14.808Z,79.72
